Time;durP1;ratioP1;P1;durP2;ratioP2;P2;SDS_P1;SDS_P2;PMS_P1;PMS_P2;Temp;Humidity;BMP_temperature;BMP_pressure;BME280_temperature;BME280_humidity;BME280_pressure;Samples;Min_cycle;Max_cycle;Signal;HPM_P1;HPM_P2
2023/11/26 00:02:15;;;;;;;1.90;0.80;;;3.80;88.30;;;;;;5134635;28;20219;-88
2023/11/26 00:04:42;;;;;;;2.00;0.80;;;3.80;88.50;;;;;;5134503;28;20599;-87
2023/11/26 00:07:11;;;;;;;2.00;0.82;;;3.80;88.40;;;;;;5134614;28;20626;-87
2023/11/26 00:09:39;;;;;;;1.88;0.82;;;3.80;88.70;;;;;;5134556;28;20184;-88
2023/11/26 00:12:08;;;;;;;2.13;1.00;;;3.80;89.10;;;;;;5134491;28;20187;-86
2023/11/26 00:14:38;;;;;;;1.83;0.80;;;3.80;89.30;;;;;;5136883;27;20584;-86
2023/11/26 00:17:05;;;;;;;2.30;1.20;;;3.80;89.20;;;;;;5138377;27;20183;-86
2023/11/26 00:19:34;;;;;;;2.05;0.90;;;3.80;89.00;;;;;;5138166;27;20219;-86
2023/11/26 00:22:01;;;;;;;2.42;1.10;;;3.90;89.10;;;;;;5138340;27;20188;-86
2023/11/26 00:24:28;;;;;;;1.88;0.80;;;3.90;89.20;;;;;;5138260;27;20223;-87
2023/11/26 00:26:55;;;;;;;2.25;0.75;;;3.90;89.30;;;;;;5138432;27;20237;-87
2023/11/26 00:29:23;;;;;;;2.10;1.00;;;3.80;89.60;;;;;;5138087;27;20184;-87
2023/11/26 00:31:50;;;;;;;2.00;0.90;;;3.90;89.90;;;;;;5138388;27;20219;-86
2023/11/26 00:34:17;;;;;;;1.95;0.85;;;3.90;89.90;;;;;;5138395;27;20185;-87
2023/11/26 00:36:44;;;;;;;2.03;0.90;;;3.90;90.00;;;;;;5138034;27;20709;-87
2023/11/26 00:39:11;;;;;;;1.98;0.85;;;3.90;90.00;;;;;;5138048;27;20653;-87
2023/11/26 00:41:38;;;;;;;2.05;0.90;;;3.90;90.00;;;;;;5138158;27;20184;-87
2023/11/26 00:44:06;;;;;;;2.05;0.88;;;3.90;90.00;;;;;;5138135;27;20192;-87
2023/11/26 00:46:34;;;;;;;2.42;1.15;;;3.90;90.00;;;;;;5138083;27;20278;-86
2023/11/26 00:49:05;;;;;;;2.42;1.13;;;3.90;90.00;;;;;;5137737;27;20227;-87
2023/11/26 00:51:32;;;;;;;2.17;1.00;;;3.90;90.00;;;;;;5137774;27;20200;-87
2023/11/26 00:53:59;;;;;;;3.25;1.00;;;3.90;90.00;;;;;;5138053;27;20212;-87
2023/11/26 00:56:26;;;;;;;2.05;0.98;;;3.80;90.00;;;;;;5137612;27;20195;-88
2023/11/26 00:58:53;;;;;;;1.90;0.90;;;3.90;90.10;;;;;;5137585;27;20187;-89
2023/11/26 01:01:20;;;;;;;2.30;0.98;;;3.90;90.10;;;;;;5137607;27;20213;-88
2023/11/26 01:03:48;;;;;;;2.00;0.95;;;3.80;90.00;;;;;;5137799;27;20242;-87
2023/11/26 01:06:15;;;;;;;2.00;1.00;;;3.80;90.00;;;;;;5137033;27;20243;-88
2023/11/26 01:08:42;;;;;;;2.00;0.80;;;3.90;90.10;;;;;;5137342;27;20227;-86
2023/11/26 01:11:12;;;;;;;2.10;1.10;;;3.90;90.10;;;;;;5137265;27;20188;-86
2023/11/26 01:13:39;;;;;;;1.73;0.73;;;3.90;90.10;;;;;;5137354;27;20185;-86
2023/11/26 01:16:07;;;;;;;2.25;0.90;;;3.90;90.20;;;;;;5137260;27;20284;-87
2023/11/26 01:18:34;;;;;;;3.53;1.20;;;3.90;90.20;;;;;;5137542;27;20220;-88
2023/11/26 01:21:02;;;;;;;2.28;0.90;;;3.80;90.30;;;;;;5137100;27;20231;-88
2023/11/26 01:23:29;;;;;;;1.70;0.70;;;3.80;90.30;;;;;;5137380;27;20188;-89
2023/11/26 01:25:56;;;;;;;1.60;0.60;;;3.90;90.30;;;;;;5136518;27;20543;-88
2023/11/26 01:28:23;;;;;;;1.60;0.60;;;3.80;90.30;;;;;;5136953;27;20691;-90
2023/11/26 01:30:50;;;;;;;1.90;0.57;;;3.80;90.30;;;;;;5137357;27;20194;-89
2023/11/26 01:33:19;;;;;;;1.60;0.50;;;3.80;90.30;;;;;;5137179;27;20220;-89
2023/11/26 01:35:46;;;;;;;1.63;0.60;;;3.80;90.30;;;;;;5137161;27;20227;-90
2023/11/26 01:38:15;;;;;;;1.85;0.73;;;3.80;90.30;;;;;;5136728;27;20271;-89
2023/11/26 01:40:42;;;;;;;5.10;1.90;;;3.80;90.20;;;;;;5136624;27;20241;-88
2023/11/26 01:43:08;;;;;;;1.80;0.70;;;3.80;90.30;;;;;;5136970;27;20215;-89
2023/11/26 01:45:35;;;;;;;1.90;0.70;;;3.80;90.30;;;;;;5136240;27;20319;-90
2023/11/26 01:48:04;;;;;;;2.17;0.80;;;3.80;90.30;;;;;;5136895;27;20215;-89
2023/11/26 01:50:32;;;;;;;2.03;1.02;;;3.80;90.40;;;;;;5136252;27;20274;-89
2023/11/26 01:53:00;;;;;;;2.55;1.08;;;3.80;90.30;;;;;;5136538;27;20227;-89
2023/11/26 01:55:28;;;;;;;4.43;1.42;;;3.80;90.30;;;;;;5136700;27;20192;-90
2023/11/26 01:57:55;;;;;;;1.95;0.93;;;3.80;90.10;;;;;;5136678;27;20215;-90
2023/11/26 02:00:23;;;;;;;2.50;1.13;;;3.80;90.00;;;;;;5136708;27;20188;-91
2023/11/26 02:02:51;;;;;;;2.50;1.17;;;3.80;90.00;;;;;;5136598;27;20207;-90
2023/11/26 02:05:18;;;;;;;3.50;1.17;;;3.80;90.00;;;;;;5136192;27;20292;-88
2023/11/26 02:07:46;;;;;;;2.38;1.10;;;3.80;90.10;;;;;;5136213;27;20219;-86
2023/11/26 02:10:13;;;;;;;2.00;1.00;;;3.70;89.90;;;;;;5136462;27;20184;-88
2023/11/26 02:13:00;;;;;;;2.10;1.10;;;3.70;89.80;;;;;;5136154;27;20236;-91
2023/11/26 02:15:27;;;;;;;2.60;1.17;;;3.70;89.60;;;;;;5136524;27;20173;-88
2023/11/26 02:17:54;;;;;;;2.15;1.10;;;3.70;88.60;;;;;;5136268;27;20285;-88
2023/11/26 02:20:22;;;;;;;3.50;1.23;;;3.70;88.40;;;;;;5136306;27;20375;-89
2023/11/26 02:22:49;;;;;;;8.32;1.50;;;3.60;87.90;;;;;;5135933;27;20180;-89
2023/11/26 02:25:20;;;;;;;25.15;5.75;;;3.50;87.90;;;;;;5136272;27;20283;-89
2023/11/26 02:27:47;;;;;;;3.08;1.08;;;3.40;88.00;;;;;;5135882;27;20618;-88
2023/11/26 02:30:14;;;;;;;2.85;1.48;;;3.30;88.20;;;;;;5136128;27;20211;-89
2023/11/26 02:32:41;;;;;;;3.28;1.40;;;3.30;88.50;;;;;;5136016;27;20195;-88
2023/11/26 02:35:08;;;;;;;2.10;0.93;;;3.20;88.70;;;;;;5135736;27;20283;-89
2023/11/26 02:37:35;;;;;;;2.70;1.58;;;3.10;88.80;;;;;;5134982;27;20184;-87
2023/11/26 02:40:05;;;;;;;2.30;1.13;;;3.10;88.30;;;;;;5135594;27;20667;-88
2023/11/26 02:42:33;;;;;;;2.20;0.90;;;3.00;87.90;;;;;;5135810;27;20184;-88
2023/11/26 02:45:00;;;;;;;2.30;1.15;;;3.00;87.90;;;;;;5135689;27;20255;-87
2023/11/26 02:47:27;;;;;;;2.45;1.10;;;2.90;88.00;;;;;;5135836;27;20172;-88
2023/11/26 02:49:54;;;;;;;2.15;0.95;;;2.80;87.70;;;;;;5135735;27;20219;-88
2023/11/26 02:52:21;;;;;;;4.25;1.35;;;2.80;88.00;;;;;;5135713;27;20271;-88
2023/11/26 02:54:48;;;;;;;2.40;1.00;;;2.80;88.50;;;;;;5135316;27;20270;-89
2023/11/26 02:57:15;;;;;;;1.90;0.80;;;2.80;89.60;;;;;;5135542;27;20553;-88
2023/11/26 02:59:43;;;;;;;2.40;0.80;;;2.80;90.20;;;;;;5135575;27;20184;-88
2023/11/26 03:02:10;;;;;;;3.40;1.20;;;2.80;90.50;;;;;;5135569;27;20222;-87
2023/11/26 03:04:38;;;;;;;2.97;0.88;;;2.90;90.50;;;;;;5135200;27;20621;-88
2023/11/26 03:07:05;;;;;;;2.38;1.15;;;2.80;90.30;;;;;;5135242;27;20230;-87
2023/11/26 03:12:56;;;;;;;2.63;1.20;;;2.80;90.00;;;;;;5135320;27;20184;-87
2023/11/26 03:15:18;;;;;;;4.55;1.23;;;2.80;89.20;;;;;;5135043;27;20191;-88
2023/11/26 03:17:45;;;;;;;4.15;1.20;;;2.70;89.10;;;;;;5135194;27;20201;-89
2023/11/26 03:20:16;;;;;;;3.78;1.10;;;2.70;88.70;;;;;;5134797;27;20230;-89
2023/11/26 03:22:43;;;;;;;1.80;0.80;;;2.70;88.80;;;;;;5135539;27;20211;-89
2023/11/26 03:25:10;;;;;;;2.95;1.13;;;2.70;88.70;;;;;;5134623;27;20188;-88
2023/11/26 03:27:38;;;;;;;2.00;0.98;;;2.70;88.80;;;;;;5135085;27;20597;-88
2023/11/26 03:30:08;;;;;;;2.00;0.80;;;2.70;88.80;;;;;;5135266;27;20191;-89
2023/11/26 03:32:38;;;;;;;2.40;1.30;;;2.70;89.00;;;;;;5134988;27;20207;-88
2023/11/26 03:35:06;;;;;;;2.72;1.35;;;2.70;89.00;;;;;;5134866;27;20661;-88
2023/11/26 03:37:33;;;;;;;4.25;1.48;;;2.70;89.10;;;;;;5134919;27;20231;-88
2023/11/26 03:40:00;;;;;;;2.63;1.33;;;2.80;89.30;;;;;;5134512;27;20702;-89
2023/11/26 03:42:27;;;;;;;3.22;1.40;;;2.80;89.20;;;;;;5134739;27;20272;-89
2023/11/26 03:44:54;;;;;;;3.58;1.50;;;2.80;88.90;;;;;;5134564;27;20275;-88
2023/11/26 03:47:21;;;;;;;2.35;1.30;;;2.90;88.10;;;;;;5134459;27;20721;-88
2023/11/26 03:49:50;;;;;;;2.50;1.30;;;2.90;88.00;;;;;;5134385;27;20564;-88
2023/11/26 03:52:18;;;;;;;2.53;1.40;;;2.90;87.80;;;;;;5134405;27;20180;-88
2023/11/26 03:54:45;;;;;;;6.07;1.35;;;2.90;87.70;;;;;;5134354;28;20275;-88
2023/11/26 03:57:12;;;;;;;3.95;2.00;;;2.90;87.90;;;;;;5134572;28;20377;-88
2023/11/26 03:59:42;;;;;;;2.38;1.30;;;3.00;87.70;;;;;;5134351;28;20213;-89
2023/11/26 04:02:09;;;;;;;2.40;1.30;;;3.00;87.10;;;;;;5134902;28;20219;-89
2023/11/26 04:04:36;;;;;;;4.20;1.60;;;3.00;86.10;;;;;;5134678;28;20215;-88
2023/11/26 04:07:05;;;;;;;2.58;1.30;;;3.00;85.80;;;;;;5134404;28;20295;-88
2023/11/26 04:09:33;;;;;;;3.05;1.40;;;3.00;86.40;;;;;;5134218;28;20234;-88
2023/11/26 04:12:00;;;;;;;3.50;1.58;;;3.00;85.20;;;;;;5134646;28;20184;-88
2023/11/26 04:14:31;;;;;;;4.18;1.55;;;3.00;84.80;;;;;;5134551;28;20223;-88
2023/11/26 04:16:58;;;;;;;2.90;1.60;;;3.00;84.70;;;;;;5134299;28;20263;-88
2023/11/26 04:19:25;;;;;;;2.80;1.27;;;3.00;84.90;;;;;;5134568;27;20266;-88
2023/11/26 04:21:52;;;;;;;3.13;1.75;;;3.00;84.80;;;;;;5134415;28;20270;-89
2023/11/26 04:24:21;;;;;;;3.45;1.73;;;3.00;84.50;;;;;;5134116;28;20270;-88
2023/11/26 04:26:48;;;;;;;4.60;1.40;;;3.00;83.50;;;;;;5134229;28;20239;-87
2023/11/26 04:29:14;;;;;;;5.22;1.77;;;2.90;83.00;;;;;;5134077;28;20277;-88
2023/11/26 04:31:42;;;;;;;4.38;1.75;;;3.00;83.40;;;;;;5134395;28;20271;-88
2023/11/26 04:34:09;;;;;;;3.63;1.70;;;3.00;83.70;;;;;;5134038;28;20267;-88
2023/11/26 04:36:36;;;;;;;3.50;1.80;;;2.90;83.10;;;;;;5134026;27;20241;-88
2023/11/26 04:39:05;;;;;;;2.70;1.80;;;2.90;83.40;;;;;;5134189;28;20216;-89
2023/11/26 04:41:35;;;;;;;4.95;2.30;;;2.90;83.70;;;;;;5133927;27;20195;-88
2023/11/26 04:44:02;;;;;;;3.45;2.63;;;2.90;83.70;;;;;;5134395;28;20615;-88
2023/11/26 04:46:29;;;;;;;3.85;1.88;;;2.90;83.50;;;;;;5134192;28;20224;-88
2023/11/26 04:48:56;;;;;;;2.92;1.98;;;2.90;83.30;;;;;;5133830;28;20237;-88
2023/11/26 04:51:22;;;;;;;3.58;2.00;;;2.90;82.90;;;;;;5131674;28;20184;-88
2023/11/26 04:53:50;;;;;;;2.90;1.55;;;2.90;83.00;;;;;;5133530;28;20271;-88
2023/11/26 04:56:18;;;;;;;3.70;1.83;;;2.80;82.20;;;;;;5133698;28;20268;-88
2023/11/26 04:58:46;;;;;;;4.50;1.60;;;2.80;81.10;;;;;;5133571;28;20188;-89
2023/11/26 05:01:16;;;;;;;3.20;1.73;;;2.70;79.80;;;;;;5135080;27;20267;-88
2023/11/26 05:03:43;;;;;;;2.58;1.33;;;2.70;79.40;;;;;;5137756;27;20601;-88
2023/11/26 05:06:11;;;;;;;2.92;1.60;;;2.50;78.70;;;;;;5137081;27;20290;-88
2023/11/26 05:08:38;;;;;;;3.35;1.88;;;2.50;79.50;;;;;;5137323;27;20184;-88
2023/11/26 05:11:06;;;;;;;4.20;2.75;;;2.50;79.80;;;;;;5137436;27;20515;-87
2023/11/26 05:13:33;;;;;;;2.28;1.27;;;2.50;80.50;;;;;;5137323;27;20564;-87
2023/11/26 05:16:03;;;;;;;4.07;1.73;;;2.50;80.00;;;;;;5129689;27;20189;-87
2023/11/26 05:18:30;;;;;;;4.25;1.25;;;2.60;80.30;;;;;;5131501;27;20271;-88
2023/11/26 05:20:58;;;;;;;2.83;1.40;;;2.60;80.60;;;;;;5137265;27;20575;-88
2023/11/26 05:23:24;;;;;;;4.97;2.25;;;2.60;80.90;;;;;;5137051;27;20180;-89
2023/11/26 05:25:52;;;;;;;4.38;2.20;;;2.60;81.30;;;;;;5137191;27;20586;-88
2023/11/26 05:28:19;;;;;;;3.25;1.85;;;2.70;80.70;;;;;;5137310;27;20188;-88
2023/11/26 05:30:46;;;;;;;4.30;2.58;;;2.70;80.10;;;;;;5136862;27;20274;-87
2023/11/26 05:33:14;;;;;;;3.75;1.98;;;2.60;80.10;;;;;;5136992;27;20287;-88
2023/11/26 05:35:41;;;;;;;5.10;1.95;;;2.60;80.70;;;;;;5137314;27;20189;-88
2023/11/26 05:38:08;;;;;;;5.53;2.00;;;2.60;81.50;;;;;;5137050;27;20184;-88
2023/11/26 05:40:36;;;;;;;5.07;2.10;;;2.60;82.00;;;;;;5136897;27;20220;-87
2023/11/26 05:43:03;;;;;;;5.05;1.90;;;2.70;82.00;;;;;;5136705;27;20204;-88
2023/11/26 05:45:29;;;;;;;5.13;2.70;;;2.60;81.90;;;;;;5136581;27;20299;-87
2023/11/26 05:47:56;;;;;;;3.70;2.50;;;2.60;82.00;;;;;;5136878;27;20594;-87
2023/11/26 05:50:25;;;;;;;5.85;2.10;;;2.70;81.20;;;;;;5136695;27;20216;-87
2023/11/26 05:52:52;;;;;;;4.47;2.05;;;2.70;81.60;;;;;;5136690;27;20185;-88
2023/11/26 05:55:21;;;;;;;3.28;1.63;;;2.60;81.90;;;;;;5136717;27;20180;-87
2023/11/26 05:57:48;;;;;;;2.95;1.95;;;2.60;82.30;;;;;;5136661;27;20192;-87
2023/11/26 06:00:18;;;;;;;6.63;2.25;;;2.60;82.90;;;;;;5136252;27;20271;-87
2023/11/26 06:02:45;;;;;;;5.43;2.53;;;2.60;83.30;;;;;;5136087;27;20184;-88
2023/11/26 06:05:12;;;;;;;5.10;2.30;;;2.60;83.20;;;;;;5136617;27;20616;-87
2023/11/26 06:07:40;;;;;;;4.15;2.35;;;2.60;83.00;;;;;;5136528;27;20239;-87
2023/11/26 06:10:09;;;;;;;5.65;2.33;;;2.60;82.80;;;;;;5136773;27;20275;-87
2023/11/26 06:12:36;;;;;;;3.33;2.17;;;2.70;83.10;;;;;;5136518;27;20267;-87
2023/11/26 06:15:03;;;;;;;3.40;1.60;;;2.70;83.10;;;;;;5136357;27;20227;-87
2023/11/26 06:17:30;;;;;;;5.43;2.03;;;2.70;83.10;;;;;;5136465;27;20301;-87
2023/11/26 06:19:57;;;;;;;3.13;1.95;;;2.80;83.20;;;;;;5136317;27;20180;-88
2023/11/26 06:22:24;;;;;;;4.00;2.33;;;2.80;83.30;;;;;;5136062;27;20227;-88
2023/11/26 06:24:52;;;;;;;3.58;1.90;;;2.80;83.30;;;;;;5136288;27;20233;-87
2023/11/26 06:27:19;;;;;;;3.65;1.75;;;2.90;82.60;;;;;;5135979;27;20303;-87
2023/11/26 06:29:46;;;;;;;3.25;2.15;;;2.90;82.80;;;;;;5135810;27;20270;-87
2023/11/26 06:32:13;;;;;;;4.57;2.25;;;2.90;83.00;;;;;;5136055;27;20227;-87
2023/11/26 06:34:40;;;;;;;4.85;3.20;;;2.90;83.10;;;;;;5135469;27;20665;-88
2023/11/26 06:37:07;;;;;;;4.10;2.65;;;2.90;83.20;;;;;;5136134;27;20389;-87
2023/11/26 06:39:33;;;;;;;5.13;2.53;;;2.90;83.20;;;;;;5135915;27;20188;-88
2023/11/26 06:42:03;;;;;;;2.67;1.85;;;2.90;83.20;;;;;;5135660;27;20223;-87
2023/11/26 06:44:30;;;;;;;3.47;1.80;;;2.90;82.80;;;;;;5135872;27;20241;-87
2023/11/26 06:46:57;;;;;;;2.95;1.63;;;3.00;82.50;;;;;;5135760;27;20311;-87
2023/11/26 06:49:24;;;;;;;4.05;2.60;;;2.90;82.10;;;;;;5135371;27;20271;-88
2023/11/26 06:51:53;;;;;;;4.20;2.40;;;3.00;82.20;;;;;;5135898;27;20527;-87
2023/11/26 06:54:20;;;;;;;3.78;2.00;;;3.00;81.10;;;;;;5135318;27;20277;-87
2023/11/26 06:56:46;;;;;;;5.93;2.67;;;3.00;81.10;;;;;;5135220;27;20188;-87
2023/11/26 06:59:15;;;;;;;4.55;2.63;;;3.00;81.30;;;;;;5135759;27;20215;-87
2023/11/26 07:01:42;;;;;;;3.95;2.53;;;3.00;81.70;;;;;;5135525;27;20275;-87
2023/11/26 07:04:10;;;;;;;6.18;2.65;;;3.00;82.20;;;;;;5135282;27;20187;-88
2023/11/26 07:06:37;;;;;;;7.88;2.97;;;3.00;82.50;;;;;;5135053;27;20215;-88
2023/11/26 07:09:09;;;;;;;15.52;8.13;;;3.00;82.70;;;;;;5135125;27;20212;-87
2023/11/26 07:11:36;;;;;;;31.02;14.80;;;3.00;83.50;;;;;;5133146;27;20544;-88
2023/11/26 07:14:03;;;;;;;7.32;4.07;;;3.00;83.00;;;;;;5134516;27;20274;-87
2023/11/26 07:16:31;;;;;;;10.02;4.45;;;3.00;82.90;;;;;;5134206;27;20210;-88
2023/11/26 07:18:58;;;;;;;3.45;2.45;;;3.10;82.60;;;;;;5134716;27;20189;-87
2023/11/26 07:21:25;;;;;;;5.65;2.95;;;3.10;82.70;;;;;;5134183;27;20187;-88
2023/11/26 07:23:52;;;;;;;4.35;2.63;;;3.20;82.70;;;;;;5133491;27;20645;-88
2023/11/26 07:26:21;;;;;;;4.40;2.33;;;3.20;82.70;;;;;;5134295;27;20587;-85
2023/11/26 07:28:50;;;;;;;4.65;2.70;;;3.20;82.90;;;;;;5134206;27;20549;-88
2023/11/26 07:31:19;;;;;;;5.78;2.70;;;3.30;82.70;;;;;;5134368;27;20518;-88
2023/11/26 07:33:47;;;;;;;4.55;2.40;;;3.30;82.50;;;;;;5134246;27;20188;-87
2023/11/26 07:36:19;;;;;;;4.75;3.17;;;3.40;83.10;;;;;;5133917;27;20215;-87
2023/11/26 07:38:46;;;;;;;4.65;2.75;;;3.40;82.40;;;;;;5133874;27;20181;-88
2023/11/26 07:41:14;;;;;;;5.97;3.95;;;3.50;81.60;;;;;;5133957;27;20184;-87
2023/11/26 07:43:42;;;;;;;4.43;3.10;;;3.50;80.90;;;;;;5134157;27;20514;-88
2023/11/26 07:46:15;;;;;;;3.60;2.95;;;3.60;80.30;;;;;;5132157;27;20239;-87
2023/11/26 07:48:47;;;;;;;4.63;2.33;;;3.60;79.70;;;;;;5132747;27;20205;-86
2023/11/26 07:51:15;;;;;;;4.60;1.95;;;3.70;79.30;;;;;;5133753;27;20180;-86
2023/11/26 07:53:49;;;;;;;7.55;3.63;;;3.70;79.20;;;;;;5112901;28;20192;-86
2023/11/26 07:56:17;;;;;;;2.97;2.00;;;3.80;78.60;;;;;;5120358;28;20184;-88
2023/11/26 07:58:47;;;;;;;4.00;2.10;;;3.80;77.80;;;;;;5127592;27;20565;-86
2023/11/26 08:01:14;;;;;;;4.43;2.40;;;3.80;78.40;;;;;;5132495;28;20180;-85
2023/11/26 08:03:43;;;;;;;4.47;1.70;;;3.90;78.70;;;;;;5126306;28;20195;-87
2023/11/26 08:06:14;;;;;;;7.70;2.47;;;3.90;78.80;;;;;;5129509;28;20188;-86
2023/11/26 08:08:43;;;;;;;3.70;2.30;;;3.90;78.50;;;;;;5133627;28;20204;-87
2023/11/26 08:11:13;;;;;;;4.80;3.00;;;3.90;78.10;;;;;;5130240;28;20231;-86
2023/11/26 08:13:41;;;;;;;6.63;2.83;;;3.90;78.00;;;;;;5132059;28;20192;-86
2023/11/26 08:16:09;;;;;;;4.80;2.97;;;3.90;78.30;;;;;;5133470;28;20541;-86
2023/11/26 08:18:37;;;;;;;5.30;2.33;;;4.00;78.30;;;;;;5133478;27;20550;-86
2023/11/26 08:21:06;;;;;;;4.47;2.50;;;4.00;77.30;;;;;;5132219;27;20188;-87
2023/11/26 08:23:40;;;;;;;4.78;3.13;;;4.00;78.10;;;;;;5125661;28;20196;-88
2023/11/26 08:26:15;;;;;;;7.65;3.42;;;4.00;77.20;;;;;;5128885;28;20177;-87
2023/11/26 08:28:45;;;;;;;6.60;2.95;;;4.10;77.70;;;;;;5130770;28;20558;-87
2023/11/26 08:31:12;;;;;;;8.75;3.10;;;4.10;77.60;;;;;;5130559;28;20214;-87
2023/11/26 08:33:42;;;;;;;6.47;3.38;;;4.20;77.60;;;;;;5130677;28;20196;-86
2023/11/26 08:36:10;;;;;;;3.70;2.35;;;4.20;77.50;;;;;;5131616;27;20208;-87
2023/11/26 08:38:41;;;;;;;9.48;4.30;;;4.30;76.50;;;;;;5129991;27;20194;-86
2023/11/26 08:41:11;;;;;;;6.45;4.15;;;4.40;76.10;;;;;;5133569;27;20886;-87
2023/11/26 08:43:41;;;;;;;5.28;3.50;;;4.40;75.40;;;;;;5134724;27;20202;-87
2023/11/26 08:46:09;;;;;;;7.05;3.80;;;4.40;75.90;;;;;;5134139;27;20277;-87
2023/11/26 08:48:37;;;;;;;8.30;4.10;;;4.50;75.70;;;;;;5134253;27;20220;-87
2023/11/26 08:51:04;;;;;;;6.05;3.40;;;4.60;74.80;;;;;;5134397;27;20194;-88
2023/11/26 08:53:32;;;;;;;3.80;2.60;;;4.60;74.50;;;;;;5134888;27;20291;-87
2023/11/26 08:56:01;;;;;;;7.35;3.13;;;4.60;73.60;;;;;;5133240;27;20211;-87
2023/11/26 08:58:28;;;;;;;6.00;2.65;;;4.60;73.30;;;;;;5134573;27;20192;-86
2023/11/26 09:00:58;;;;;;;7.82;3.83;;;4.70;73.50;;;;;;5134502;27;20245;-87
2023/11/26 09:03:25;;;;;;;5.18;2.63;;;4.60;73.70;;;;;;5134315;27;20195;-88
2023/11/26 09:05:52;;;;;;;4.38;2.60;;;4.60;72.70;;;;;;5133654;27;20200;-88
2023/11/26 09:08:20;;;;;;;4.90;2.45;;;4.70;73.50;;;;;;5131288;27;20784;-87
2023/11/26 09:10:48;;;;;;;5.18;2.00;;;4.70;73.50;;;;;;5133114;27;20259;-88
2023/11/26 09:13:16;;;;;;;4.68;2.28;;;4.70;73.40;;;;;;5133860;27;20184;-86
2023/11/26 09:15:43;;;;;;;5.45;2.75;;;4.70;73.00;;;;;;5132759;27;20216;-87
2023/11/26 09:18:10;;;;;;;5.90;2.65;;;4.80;72.60;;;;;;5133260;27;20184;-87
2023/11/26 09:20:37;;;;;;;4.32;3.03;;;4.80;72.20;;;;;;5133638;27;20254;-87
2023/11/26 09:23:04;;;;;;;6.43;3.20;;;4.80;72.30;;;;;;5133301;27;20271;-88
2023/11/26 09:25:33;;;;;;;4.78;3.28;;;4.90;71.80;;;;;;5132308;27;20218;-89
2023/11/26 09:28:00;;;;;;;9.05;6.10;;;4.80;71.60;;;;;;5133169;27;20314;-88
2023/11/26 09:30:28;;;;;;;16.00;7.70;;;4.90;72.10;;;;;;5132398;27;20300;-87
2023/11/26 09:32:55;;;;;;;16.67;7.15;;;4.90;71.80;;;;;;5132079;27;20267;-87
2023/11/26 09:35:22;;;;;;;5.72;3.65;;;5.00;71.40;;;;;;5135304;27;20745;-87
2023/11/26 09:37:49;;;;;;;6.30;3.20;;;4.90;71.70;;;;;;5136139;27;20231;-87
2023/11/26 09:40:16;;;;;;;4.75;3.63;;;4.90;72.90;;;;;;5135410;27;20234;-87
2023/11/26 09:42:49;;;;;;;4.80;2.53;;;4.90;72.00;;;;;;5136148;27;20615;-85
2023/11/26 09:45:18;;;;;;;8.40;3.22;;;5.00;73.00;;;;;;5135767;27;20264;-88
2023/11/26 09:47:47;;;;;;;4.45;2.53;;;5.10;73.90;;;;;;5135185;27;20689;-87
2023/11/26 09:50:14;;;;;;;4.55;2.80;;;5.20;73.50;;;;;;5135189;27;20227;-88
2023/11/26 09:52:42;;;;;;;5.30;2.88;;;5.30;74.00;;;;;;5135789;27;20192;-89
2023/11/26 09:55:09;;;;;;;4.60;3.20;;;5.40;73.40;;;;;;5136309;27;20596;-89
2023/11/26 09:57:37;;;;;;;8.73;3.33;;;5.40;73.20;;;;;;5135487;27;20215;-89
2023/11/26 10:00:06;;;;;;;6.97;3.30;;;5.40;73.00;;;;;;5136094;27;20191;-89
2023/11/26 10:02:33;;;;;;;5.47;2.90;;;5.50;72.00;;;;;;5135906;27;20215;-92
2023/11/26 10:05:01;;;;;;;6.60;3.15;;;5.60;71.00;;;;;;5135717;27;20278;-92
2023/11/26 10:07:36;;;;;;;4.75;2.78;;;5.70;72.00;;;;;;5135499;27;20192;-92
2023/11/26 10:10:09;;;;;;;6.78;3.22;;;5.90;72.60;;;;;;5135132;27;20190;-91
2023/11/26 10:12:53;;;;;;;5.00;2.88;;;6.20;70.70;;;;;;5135313;27;20234;-91
2023/11/26 10:15:21;;;;;;;4.15;2.55;;;6.30;68.90;;;;;;5135379;27;20187;-91
2023/11/26 10:18:06;;;;;;;5.40;2.95;;;6.40;69.40;;;;;;5135415;27;20192;-90
2023/11/26 10:20:36;;;;;;;6.88;2.80;;;6.40;69.00;;;;;;5122676;27;20191;-90
2023/11/26 10:23:03;;;;;;;4.78;2.67;;;6.40;66.40;;;;;;5135095;27;20184;-91
2023/11/26 10:25:31;;;;;;;5.20;2.60;;;6.50;66.40;;;;;;5135145;27;20219;-89
2023/11/26 10:28:00;;;;;;;7.45;3.28;;;6.50;66.10;;;;;;5132351;27;20670;-91
2023/11/26 10:30:29;;;;;;;5.03;2.35;;;6.50;66.20;;;;;;5135250;27;20594;-91
2023/11/26 10:33:01;;;;;;;5.20;2.83;;;6.50;66.10;;;;;;5114947;28;20189;-91
2023/11/26 10:35:46;;;;;;;3.60;1.80;;;6.60;65.80;;;;;;5114866;28;20209;-90
2023/11/26 10:38:14;;;;;;;4.75;1.95;;;6.60;65.10;;;;;;5120471;27;20535;-91
2023/11/26 10:40:42;;;;;;;4.57;2.38;;;6.60;65.10;;;;;;5135039;27;20196;-91
2023/11/26 10:43:10;;;;;;;5.05;2.38;;;6.70;66.10;;;;;;5134920;27;20193;-91
2023/11/26 10:45:38;;;;;;;3.47;1.75;;;6.80;65.00;;;;;;5134377;27;20678;-90
2023/11/26 10:48:09;;;;;;;3.60;2.15;;;6.90;65.40;;;;;;5134937;27;20303;-90
2023/11/26 10:50:41;;;;;;;2.78;1.67;;;7.00;65.30;;;;;;5134603;27;20172;-91
2023/11/26 10:53:29;;;;;;;5.40;2.05;;;7.10;65.80;;;;;;5134232;27;20251;-89
2023/11/26 10:55:58;;;;;;;4.22;2.60;;;7.20;65.30;;;;;;5134901;27;20184;-90
2023/11/26 10:58:28;;;;;;;2.95;1.63;;;7.30;64.70;;;;;;5133580;27;20680;-90
2023/11/26 11:00:58;;;;;;;3.30;1.27;;;7.40;64.10;;;;;;5134748;27;20192;-90
2023/11/26 11:03:27;;;;;;;3.33;1.60;;;7.40;62.90;;;;;;5134397;27;20287;-90
2023/11/26 11:05:55;;;;;;;3.58;2.10;;;7.40;62.40;;;;;;5134082;27;20188;-90
2023/11/26 11:08:25;;;;;;;6.05;2.25;;;7.40;63.30;;;;;;5134232;27;20259;-91
2023/11/26 11:11:08;;;;;;;4.60;2.60;;;7.30;61.80;;;;;;5132909;27;20227;-91
2023/11/26 11:13:36;;;;;;;4.65;3.30;;;7.20;62.50;;;;;;5134190;27;20662;-90
2023/11/26 11:16:04;;;;;;;7.82;3.17;;;7.10;64.10;;;;;;5134091;27;20195;-90
2023/11/26 11:18:43;;;;;;;4.38;2.30;;;7.20;63.90;;;;;;5133759;27;20582;-90
2023/11/26 11:21:12;;;;;;;4.25;2.92;;;7.20;63.00;;;;;;5134118;27;20645;-89
2023/11/26 11:23:42;;;;;;;4.00;2.08;;;7.20;62.00;;;;;;5134212;27;20195;-90
2023/11/26 11:26:10;;;;;;;4.65;1.92;;;7.10;60.70;;;;;;5134266;27;20216;-91
2023/11/26 11:28:42;;;;;;;5.10;2.08;;;7.00;61.80;;;;;;5133795;27;20247;-92
2023/11/26 11:31:10;;;;;;;4.00;2.00;;;6.90;61.80;;;;;;5134581;27;20212;-92
2023/11/26 11:33:59;;;;;;;2.80;1.45;;;6.80;61.90;;;;;;5133852;27;20220;-92
2023/11/26 11:36:52;;;;;;;2.75;1.08;;;6.80;62.90;;;;;;5134001;27;20188;-92
2023/11/26 11:39:24;;;;;;;3.20;1.88;;;6.70;63.00;;;;;;5134069;27;20200;-91
2023/11/26 11:42:12;;;;;;;2.50;0.95;;;6.70;63.40;;;;;;5133904;27;20176;-92
2023/11/26 11:44:41;;;;;;;2.40;0.95;;;6.80;63.70;;;;;;5133833;27;20245;-93
2023/11/26 11:47:09;;;;;;;2.72;1.70;;;6.70;64.50;;;;;;5133815;27;20279;-94
2023/11/26 11:50:07;;;;;;;8.18;1.80;;;6.70;63.90;;;;;;5133492;27;20212;-92
2023/11/26 11:52:34;;;;;;;4.35;1.65;;;6.70;64.00;;;;;;5050396;28;20229;-92
2023/11/26 11:55:28;;;;;;;3.30;1.77;;;6.60;63.70;;;;;;5115229;27;20187;-91
2023/11/26 11:57:56;;;;;;;3.92;2.10;;;6.70;64.60;;;;;;5130231;27;20203;-94
2023/11/26 12:00:23;;;;;;;2.95;1.30;;;6.90;65.90;;;;;;5133464;28;20322;-92
2023/11/26 12:02:52;;;;;;;5.80;1.85;;;7.20;64.90;;;;;;5133514;27;20231;-91
2023/11/26 12:05:24;;;;;;;3.92;1.65;;;7.50;64.30;;;;;;5134024;28;20606;-92
2023/11/26 12:07:52;;;;;;;7.95;2.35;;;7.80;62.30;;;;;;5133615;28;20188;-92
2023/11/26 12:10:24;;;;;;;3.53;1.70;;;7.90;61.00;;;;;;5135327;27;20194;-90
2023/11/26 12:13:02;;;;;;;2.55;1.60;;;7.90;60.60;;;;;;5135272;27;20211;-91
2023/11/26 12:15:29;;;;;;;2.78;1.73;;;7.90;59.80;;;;;;5137587;27;20224;-88
2023/11/26 12:17:57;;;;;;;3.47;1.90;;;8.00;60.70;;;;;;5137902;27;20624;-86
2023/11/26 12:20:24;;;;;;;3.03;1.83;;;8.10;61.10;;;;;;5132192;27;20257;-90
2023/11/26 12:22:54;;;;;;;2.63;1.55;;;8.40;59.50;;;;;;5135019;27;20689;-90
2023/11/26 12:25:22;;;;;;;4.40;1.95;;;8.60;58.90;;;;;;5136923;27;20231;-88
2023/11/26 12:28:03;;;;;;;2.80;1.40;;;8.90;58.40;;;;;;5136787;27;20191;-89
2023/11/26 12:30:30;;;;;;;3.22;1.60;;;9.00;58.00;;;;;;5135395;27;20638;-88
2023/11/26 12:32:58;;;;;;;3.70;2.20;;;8.90;57.30;;;;;;5137264;27;20195;-89
2023/11/26 12:35:28;;;;;;;3.03;1.80;;;8.70;56.90;;;;;;5137051;27;20189;-88
2023/11/26 12:37:57;;;;;;;6.32;3.28;;;8.50;56.50;;;;;;5136028;27;20275;-88
2023/11/26 12:40:25;;;;;;;3.10;2.05;;;8.30;56.50;;;;;;5136442;27;20208;-88
2023/11/26 12:42:53;;;;;;;3.10;1.60;;;8.10;57.70;;;;;;5137014;27;20239;-89
2023/11/26 12:45:21;;;;;;;4.32;2.05;;;8.00;58.10;;;;;;5136810;27;20252;-88
2023/11/26 12:47:52;;;;;;;2.95;1.80;;;7.90;58.20;;;;;;5136573;27;20176;-89
2023/11/26 12:50:19;;;;;;;3.67;2.10;;;7.70;58.10;;;;;;5136833;27;20586;-89
2023/11/26 12:52:48;;;;;;;5.72;2.75;;;7.50;58.40;;;;;;5136745;27;20211;-89
2023/11/26 12:55:14;;;;;;;4.60;2.20;;;7.40;59.20;;;;;;5136899;27;20249;-88
2023/11/26 12:57:45;;;;;;;3.80;2.00;;;7.30;59.70;;;;;;5136314;27;20184;-89
2023/11/26 13:00:18;;;;;;;3.15;1.75;;;7.10;59.60;;;;;;5136500;27;20191;-88
2023/11/26 13:02:48;;;;;;;4.07;1.70;;;7.00;59.90;;;;;;5136622;27;20230;-88
2023/11/26 13:05:26;;;;;;;3.65;2.13;;;6.90;60.80;;;;;;5136729;27;20567;-88
2023/11/26 13:07:55;;;;;;;3.00;1.63;;;6.80;61.00;;;;;;5136601;27;20221;-88
2023/11/26 13:10:37;;;;;;;3.15;2.15;;;6.70;61.40;;;;;;5136818;27;20235;-87